Time;durP1;ratioP1;P1;durP2;ratioP2;P2;SDS_P1;SDS_P2;PMS_P1;PMS_P2;Temp;Humidity;BMP_temperature;BMP_pressure;BME280_temperature;BME280_humidity;BME280_pressure;Samples;Min_cycle;Max_cycle;Signal;HPM_P1;HPM_P2
2023/07/29 00:00:42;;;;;;;;;;;19.00;99.90;;;;;;4990238;28;20053;-68
2023/07/29 00:03:08;;;;;;;8.57;4.93;;;19.00;99.90;;;;;;4985658;28;19986;-68
2023/07/29 00:05:34;;;;;;;9.10;4.38;;;19.00;99.90;;;;;;4987676;28;20224;-68
2023/07/29 00:08:00;;;;;;;9.02;5.60;;;18.90;99.90;;;;;;4987694;28;20060;-68
2023/07/29 00:10:26;;;;;;;11.98;5.93;;;18.90;99.90;;;;;;5007128;28;20041;-68
2023/07/29 00:12:52;;;;;;;7.45;4.80;;;19.00;99.90;;;;;;5004290;28;20092;-68
2023/07/29 00:15:18;;;;;;;10.20;5.13;;;18.90;99.90;;;;;;5002165;28;20500;-68
2023/07/29 00:17:44;;;;;;;9.98;5.57;;;18.90;99.90;;;;;;4988794;28;20045;-68
2023/07/29 00:20:10;;;;;;;10.07;6.32;;;18.90;99.90;;;;;;4989175;28;20045;-68
2023/07/29 00:22:35;;;;;;;9.23;5.82;;;18.90;99.90;;;;;;4989199;28;20054;-68
2023/07/29 00:25:01;;;;;;;10.43;5.80;;;18.90;99.90;;;;;;5005051;28;20034;-68
2023/07/29 00:27:27;;;;;;;11.27;5.88;;;18.90;99.90;;;;;;5006266;28;20069;-68
2023/07/29 00:29:53;;;;;;;7.88;5.13;;;19.00;99.90;;;;;;4999719;28;20291;-68
2023/07/29 00:32:18;;;;;;;9.93;5.68;;;18.90;99.90;;;;;;5006193;28;20198;-68
2023/07/29 00:34:44;;;;;;;11.68;6.18;;;18.90;99.90;;;;;;4988733;28;20053;-68
2023/07/29 00:37:10;;;;;;;8.10;5.35;;;18.90;99.90;;;;;;5011567;28;20050;-68
2023/07/29 00:39:40;;;;;;;10.90;5.90;;;18.90;99.90;;;;;;4992466;28;20053;-68
2023/07/29 00:42:06;;;;;;;9.45;5.93;;;18.90;99.90;;;;;;5004687;28;20520;-68
2023/07/29 00:44:31;;;;;;;8.90;5.47;;;18.90;99.90;;;;;;4987652;28;20049;-68
2023/07/29 00:46:58;;;;;;;11.35;6.38;;;18.80;99.90;;;;;;4989267;28;20619;-68
2023/07/29 00:49:24;;;;;;;9.02;5.57;;;18.80;99.90;;;;;;5008212;28;20037;-68
2023/07/29 00:51:50;;;;;;;8.02;5.40;;;18.80;99.90;;;;;;4987813;28;20531;-68
2023/07/29 00:54:16;;;;;;;9.93;5.82;;;18.80;99.90;;;;;;4988284;28;20049;-68
2023/07/29 00:56:42;;;;;;;;;;;18.80;99.90;;;;;;5006038;28;20131;-68
2023/07/29 00:59:08;;;;;;;8.73;5.45;;;18.80;99.90;;;;;;4987520;28;19972;-68
2023/07/29 01:01:35;;;;;;;10.48;6.28;;;18.70;99.90;;;;;;5005729;28;20100;-68
2023/07/29 01:04:01;;;;;;;9.45;5.22;;;18.70;99.90;;;;;;5003991;28;20042;-68
2023/07/29 01:06:49;;;;;;;9.35;5.72;;;18.80;99.90;;;;;;4989259;28;20060;-69
2023/07/29 01:09:25;;;;;;;9.40;6.28;;;18.70;99.90;;;;;;4999596;28;20054;-69
2023/07/29 01:12:15;;;;;;;10.27;5.68;;;18.70;99.90;;;;;;5006758;28;20496;-69
2023/07/29 01:15:02;;;;;;;9.55;5.80;;;18.70;99.90;;;;;;4986524;28;20050;-68
2023/07/29 01:17:35;;;;;;;9.02;5.20;;;18.70;99.90;;;;;;5005292;28;20074;-68
2023/07/29 01:20:11;;;;;;;10.45;5.90;;;18.70;99.90;;;;;;4991254;28;20540;-69
2023/07/29 01:22:38;;;;;;;9.43;6.00;;;18.60;99.90;;;;;;4980564;28;20093;-68
2023/07/29 01:25:04;;;;;;;8.95;5.68;;;18.60;99.90;;;;;;4986359;28;20473;-69
2023/07/29 01:27:30;;;;;;;8.90;5.70;;;18.60;99.90;;;;;;4988186;28;20061;-69
2023/07/29 01:29:57;;;;;;;9.60;6.07;;;18.60;99.90;;;;;;4989806;28;20508;-69
2023/07/29 01:32:43;;;;;;;8.25;5.68;;;18.60;99.90;;;;;;5000737;28;20112;-68
2023/07/29 01:35:14;;;;;;;10.00;5.93;;;18.50;99.90;;;;;;5003988;28;20046;-69
2023/07/29 01:37:44;;;;;;;10.90;5.75;;;18.50;99.90;;;;;;4987608;28;20042;-69
2023/07/29 01:40:10;;;;;;;8.30;5.30;;;18.50;99.90;;;;;;5008607;28;20034;-68
2023/07/29 01:42:36;;;;;;;8.68;5.40;;;18.50;99.90;;;;;;5003456;28;20459;-69
2023/07/29 01:45:02;;;;;;;;;;;18.50;99.90;;;;;;5004737;28;20513;-68
2023/07/29 01:47:28;;;;;;;7.75;5.47;;;18.40;99.90;;;;;;4993310;28;19921;-68
2023/07/29 01:49:56;;;;;;;9.90;5.85;;;18.40;99.90;;;;;;4992810;28;20123;-68
2023/07/29 01:52:22;;;;;;;7.30;5.15;;;18.40;99.90;;;;;;5011133;28;20391;-68
2023/07/29 01:54:48;;;;;;;9.00;6.05;;;18.40;99.90;;;;;;4994500;28;20053;-68
2023/07/29 01:57:13;;;;;;;8.77;5.38;;;18.30;99.90;;;;;;4996219;28;20038;-68
2023/07/29 01:59:40;;;;;;;8.18;5.28;;;18.30;99.90;;;;;;4997376;28;20410;-68
2023/07/29 02:02:06;;;;;;;7.63;5.10;;;18.30;99.90;;;;;;5008969;28;20042;-69
2023/07/29 02:04:31;;;;;;;8.10;5.40;;;18.30;99.90;;;;;;4993066;28;20053;-68
2023/07/29 02:06:57;;;;;;;9.48;5.65;;;18.20;99.90;;;;;;4989695;28;20045;-68
2023/07/29 02:09:23;;;;;;;9.23;5.20;;;18.20;99.90;;;;;;4993432;28;20121;-68
2023/07/29 02:11:48;;;;;;;7.85;5.22;;;18.20;99.90;;;;;;4992226;28;20056;-68
2023/07/29 02:14:14;;;;;;;8.43;5.55;;;18.20;99.90;;;;;;5002608;28;20041;-69
2023/07/29 02:16:39;;;;;;;10.85;6.20;;;18.20;99.90;;;;;;4996402;28;20507;-69
2023/07/29 02:19:05;;;;;;;7.63;5.03;;;18.20;99.90;;;;;;5005666;28;20042;-69
2023/07/29 02:21:31;;;;;;;8.95;4.88;;;18.10;99.90;;;;;;4992218;28;20030;-68
2023/07/29 02:23:56;;;;;;;8.38;4.85;;;18.10;99.90;;;;;;4993825;28;20033;-69
2023/07/29 02:26:22;;;;;;;9.63;5.60;;;18.10;99.90;;;;;;4992790;28;20095;-68
2023/07/29 02:28:48;;;;;;;8.68;4.70;;;18.10;99.90;;;;;;5010346;28;20042;-68
2023/07/29 02:31:19;;;;;;;8.02;4.75;;;18.10;99.90;;;;;;5009246;28;20480;-68
2023/07/29 02:33:45;;;;;;;8.10;4.88;;;18.10;99.90;;;;;;4992259;28;20053;-68
2023/07/29 02:36:12;;;;;;;6.50;4.50;;;18.10;99.90;;;;;;4991201;28;20115;-68
2023/07/29 02:38:39;;;;;;;8.57;4.50;;;18.10;99.90;;;;;;4996556;28;20049;-68
2023/07/29 02:41:04;;;;;;;;;;;18.00;99.90;;;;;;5005525;28;20045;-68
2023/07/29 02:43:30;;;;;;;8.18;4.03;;;17.90;99.90;;;;;;4992155;28;20436;-68
2023/07/29 02:45:55;;;;;;;9.05;4.40;;;18.00;99.90;;;;;;4987338;28;20030;-68
2023/07/29 02:48:21;;;;;;;6.30;3.88;;;18.00;99.90;;;;;;5010797;28;20440;-68
2023/07/29 02:50:47;;;;;;;8.18;4.53;;;18.00;99.90;;;;;;4989504;28;20149;-68
2023/07/29 02:53:13;;;;;;;6.63;4.15;;;18.00;99.90;;;;;;4991157;28;20057;-68
2023/07/29 02:55:41;;;;;;;9.43;4.25;;;17.90;99.90;;;;;;5005994;28;20555;-68
2023/07/29 02:58:07;;;;;;;6.80;3.88;;;17.90;99.90;;;;;;5010938;28;20030;-68
2023/07/29 03:00:33;;;;;;;6.82;4.10;;;17.90;99.90;;;;;;4975189;28;20046;-68
2023/07/29 03:02:59;;;;;;;5.80;3.50;;;17.90;99.90;;;;;;5008392;28;20046;-68
2023/07/29 03:05:30;;;;;;;7.88;3.97;;;17.80;99.90;;;;;;5007328;28;20515;-68
2023/07/29 03:07:55;;;;;;;6.90;3.33;;;17.80;99.90;;;;;;4991827;28;20049;-68
2023/07/29 03:10:32;;;;;;;8.77;3.30;;;17.80;99.90;;;;;;5068739;22;20115;-84
2023/07/29 03:13:03;;;;;;;7.78;3.40;;;17.80;99.90;;;;;;5005828;28;20084;-81
2023/07/29 03:16:09;;;;;;;6.75;3.53;;;17.80;99.90;;;;;;4994519;28;20057;-81
2023/07/29 03:18:53;;;;;;;;;;;;;;;;;;;;;
2023/07/29 03:21:33;;;;;;;6.80;3.15;;;17.80;99.90;;;;;;5020801;28;20056;-82
2023/07/29 03:24:24;;;;;;;8.48;3.65;;;17.70;99.90;;;;;;5017754;28;20370;-83
2023/07/29 03:26:55;;;;;;;7.93;4.10;;;17.70;99.90;;;;;;5003813;28;20037;-83
2023/07/29 03:32:32;;;;;;;5.28;3.20;;;17.70;99.90;;;;;;5015672;28;20479;-83
2023/07/29 03:34:58;;;;;;;8.32;3.17;;;17.70;99.90;;;;;;5015061;28;20048;-86
2023/07/29 03:43:28;;;;;;;6.47;3.53;;;17.60;99.90;;;;;;5007131;28;20057;-83
2023/07/29 03:46:36;;;;;;;8.20;4.30;;;17.60;99.90;;;;;;5006111;28;20044;-83
2023/07/29 03:49:23;;;;;;;5.40;3.35;;;17.60;99.90;;;;;;5021937;28;20120;-82
2023/07/29 03:52:14;;;;;;;8.90;3.28;;;17.60;99.90;;;;;;5000129;28;20079;-84
2023/07/29 03:55:11;;;;;;;5.20;3.10;;;17.60;99.90;;;;;;4998380;28;20535;-83
2023/07/29 03:57:40;;;;;;;8.43;3.53;;;17.60;99.90;;;;;;5002006;28;20044;-83
2023/07/29 04:00:37;;;;;;;6.90;3.15;;;17.50;99.90;;;;;;5022294;28;20037;-84
2023/07/29 04:03:17;;;;;;;7.45;3.55;;;17.60;99.90;;;;;;5009960;28;20064;-84
2023/07/29 04:05:58;;;;;;;4.22;2.60;;;17.50;99.90;;;;;;4998554;28;20659;-84
2023/07/29 04:08:33;;;;;;;7.00;3.50;;;17.50;99.90;;;;;;5003648;28;20038;-86
2023/07/29 04:11:20;;;;;;;7.20;2.67;;;17.50;99.90;;;;;;5000275;28;20132;-82
2023/07/29 04:14:12;;;;;;;4.63;2.63;;;17.50;99.90;;;;;;5003676;28;20054;-83
2023/07/29 04:16:49;;;;;;;5.55;3.15;;;17.50;99.90;;;;;;5001920;28;20105;-83
2023/07/29 04:19:44;;;;;;;7.22;3.08;;;17.50;99.90;;;;;;5000642;28;20137;-83
2023/07/29 04:22:31;;;;;;;5.82;2.80;;;17.50;99.90;;;;;;5002095;28;20051;-84
2023/07/29 04:25:12;;;;;;;6.10;2.85;;;17.40;99.90;;;;;;5022538;28;20052;-84
2023/07/29 04:27:54;;;;;;;5.60;2.50;;;17.40;99.90;;;;;;5010152;28;20045;-84
2023/07/29 04:30:58;;;;;;;5.83;2.30;;;17.40;99.90;;;;;;5019667;28;20114;-84
2023/07/29 04:33:45;;;;;;;;;;;;;;;;;;;;;
2023/07/29 04:36:58;;;;;;;7.28;3.40;;;17.50;99.90;;;;;;5012726;28;20041;-84
2023/07/29 04:39:44;;;;;;;5.15;2.65;;;17.40;99.90;;;;;;4940129;28;20529;-84
2023/07/29 04:42:35;;;;;;;5.10;2.53;;;17.40;99.90;;;;;;4959648;28;20042;-84
2023/07/29 04:45:17;;;;;;;4.80;2.67;;;17.40;99.90;;;;;;5004933;28;20115;-83
2023/07/29 04:47:46;;;;;;;3.92;2.45;;;17.40;99.90;;;;;;4999021;28;20092;-82
2023/07/29 04:53:40;;;;;;;4.15;2.40;;;17.40;99.90;;;;;;4956733;28;20059;-83
2023/07/29 04:56:09;;;;;;;5.65;2.42;;;17.40;99.90;;;;;;5000907;28;20136;-83
2023/07/29 04:59:16;;;;;;;4.13;2.30;;;17.50;99.90;;;;;;4994735;28;20041;-84
2023/07/29 05:02:06;;;;;;;6.53;2.90;;;17.40;99.90;;;;;;5015577;28;20039;-83
2023/07/29 05:05:03;;;;;;;4.78;2.53;;;17.50;99.90;;;;;;5006599;28;20052;-83
2023/07/29 05:07:44;;;;;;;4.65;2.08;;;17.40;99.90;;;;;;5002600;28;20102;-83
2023/07/29 05:10:34;;;;;;;3.25;1.75;;;17.50;99.90;;;;;;5008540;28;20508;-83
2023/07/29 05:13:00;;;;;;;6.55;2.72;;;17.50;99.90;;;;;;5001749;28;20056;-84
2023/07/29 05:15:34;;;;;;;4.43;2.45;;;17.50;99.90;;;;;;5017711;28;20722;-83
2023/07/29 05:18:00;;;;;;;4.25;2.20;;;17.50;99.90;;;;;;5004664;28;20067;-83
2023/07/29 05:20:29;;;;;;;4.43;1.77;;;17.60;99.90;;;;;;5011922;28;20037;-83
2023/07/29 05:23:27;;;;;;;5.13;2.38;;;17.60;99.90;;;;;;5005619;28;20040;-83
2023/07/29 05:26:21;;;;;;;;;;;17.50;99.90;;;;;;5015003;28;20040;-83
2023/07/29 05:28:56;;;;;;;9.00;2.10;;;17.60;99.90;;;;;;5009507;28;20012;-83
2023/07/29 05:31:35;;;;;;;6.70;2.08;;;17.50;99.90;;;;;;4998242;28;20045;-83
2023/07/29 05:34:12;;;;;;;6.68;2.20;;;17.60;99.90;;;;;;5007998;28;20038;-82
2023/07/29 05:36:39;;;;;;;5.70;1.88;;;17.50;99.90;;;;;;5007396;28;20036;-83
2023/07/29 05:39:04;;;;;;;5.85;2.00;;;17.60;99.90;;;;;;5006671;28;20660;-83
2023/07/29 05:41:35;;;;;;;5.93;2.03;;;17.60;99.90;;;;;;5045056;28;20072;-83
2023/07/29 05:44:24;;;;;;;3.75;1.80;;;17.60;99.90;;;;;;5004462;28;20068;-82
2023/07/29 05:47:57;;;;;;;5.35;2.33;;;17.60;99.90;;;;;;5000628;28;20083;-85
2023/07/29 05:50:23;;;;;;;4.50;2.00;;;17.60;99.90;;;;;;4918163;28;20050;-82
2023/07/29 05:53:10;;;;;;;3.13;1.50;;;17.60;99.90;;;;;;4988995;28;20061;-83
2023/07/29 05:55:59;;;;;;;5.90;2.17;;;17.60;99.90;;;;;;5009497;28;20045;-81
2023/07/29 05:58:33;;;;;;;4.90;2.00;;;17.60;99.90;;;;;;5007507;28;20068;-84
2023/07/29 06:01:42;;;;;;;5.60;2.00;;;17.60;99.90;;;;;;5023306;28;20044;-85
2023/07/29 06:04:11;;;;;;;4.22;1.70;;;17.70;99.90;;;;;;5011572;28;20091;-83
2023/07/29 06:06:40;;;;;;;7.20;2.00;;;17.70;99.90;;;;;;5025523;28;20064;-83
2023/07/29 06:09:29;;;;;;;4.47;2.42;;;17.70;99.90;;;;;;5023545;28;20048;-83
2023/07/29 06:12:15;;;;;;;8.23;2.10;;;17.80;99.90;;;;;;5008144;28;20630;-84
2023/07/29 06:14:41;;;;;;;5.13;1.90;;;17.80;99.90;;;;;;5008474;28;20052;-84
2023/07/29 06:17:37;;;;;;;5.93;2.25;;;17.80;99.90;;;;;;5027243;28;20091;-83
2023/07/29 06:20:15;;;;;;;3.25;1.75;;;17.90;99.90;;;;;;5039627;28;20526;-83
2023/07/29 06:22:44;;;;;;;5.80;1.83;;;18.00;99.90;;;;;;5025479;28;20449;-84
2023/07/29 06:25:30;;;;;;;6.97;1.95;;;18.00;99.90;;;;;;5037364;28;20041;-83
2023/07/29 06:28:10;;;;;;;7.55;2.45;;;18.10;99.90;;;;;;5021985;28;20385;-83
2023/07/29 06:31:08;;;;;;;5.82;2.08;;;18.10;99.90;;;;;;5010436;28;20045;-82
2023/07/29 06:33:46;;;;;;;6.45;2.45;;;18.20;99.90;;;;;;5004967;28;20591;-84
2023/07/29 06:36:46;;;;;;;5.65;1.58;;;18.30;99.90;;;;;;5006319;28;20618;-83
2023/07/29 06:39:53;;;;;;;4.38;1.90;;;18.50;99.90;;;;;;5021226;28;20052;-83
2023/07/29 06:42:30;;;;;;;4.53;1.88;;;18.50;99.90;;;;;;5038054;28;20045;-83
2023/07/29 06:45:16;;;;;;;5.72;1.98;;;18.50;99.90;;;;;;5016914;28;20041;-84
2023/07/29 06:48:05;;;;;;;5.78;1.95;;;18.60;99.90;;;;;;5023815;28;20041;-83
2023/07/29 06:50:45;;;;;;;;;;;18.60;99.90;;;;;;5015137;28;20136;-83
2023/07/29 06:53:50;;;;;;;7.93;1.92;;;18.60;99.90;;;;;;5023748;28;19932;-83
2023/07/29 06:56:44;;;;;;;6.03;1.48;;;18.70;99.90;;;;;;5001742;28;20077;-84
2023/07/29 06:59:18;;;;;;;6.63;1.60;;;18.70;99.90;;;;;;5006948;28;20188;-83
2023/07/29 07:01:59;;;;;;;;;;;;;;;;;;;;;
2023/07/29 07:04:44;;;;;;;5.82;1.92;;;18.70;99.90;;;;;;5019023;28;20037;-81
2023/07/29 07:07:27;;;;;;;7.10;1.80;;;18.70;99.90;;;;;;4998901;28;20037;-84
2023/07/29 07:09:57;;;;;;;6.90;1.58;;;18.90;99.90;;;;;;5012634;28;20487;-83
2023/07/29 07:15:34;;;;;;;6.18;2.08;;;18.80;99.90;;;;;;5010993;28;20673;-83
2023/07/29 07:18:13;;;;;;;4.60;1.92;;;18.80;99.90;;;;;;5018505;28;20057;-82
2023/07/29 07:20:39;;;;;;;7.88;2.05;;;18.90;99.90;;;;;;4999943;28;20029;-84
2023/07/29 07:23:13;;;;;;;8.90;2.28;;;18.90;99.90;;;;;;5009268;28;20046;-83
2023/07/29 07:25:47;;;;;;;3.85;1.52;;;19.00;99.90;;;;;;5038651;28;20801;-83
2023/07/29 07:32:45;;;;;;;7.03;1.40;;;19.10;99.90;;;;;;5003216;28;19925;-87
2023/07/29 07:36:27;;;;;;;;;;;;;;;;;;;;;
2023/07/29 07:39:18;;;;;;;5.55;1.70;;;19.20;99.90;;;;;;5012421;28;20072;-84
2023/07/29 07:42:31;;;;;;;6.18;1.52;;;19.30;99.90;;;;;;5020898;28;20037;-84
2023/07/29 07:45:09;;;;;;;3.83;1.40;;;19.30;99.90;;;;;;5007916;28;20523;-85
2023/07/29 07:48:00;;;;;;;3.67;1.45;;;19.40;99.90;;;;;;5018119;28;20028;-85
2023/07/29 08:13:50;;;;;;;4.68;1.40;;;19.80;99.90;;;;;;5039590;28;20120;-83
2023/07/29 08:17:21;;;;;;;;;;;;;;;;;;;;;
2023/07/29 08:20:08;;;;;;;4.20;1.50;;;19.80;99.90;;;;;;5024249;23;20235;-69
2023/07/29 08:22:33;;;;;;;4.85;1.77;;;19.80;99.90;;;;;;5026287;28;20042;-69
2023/07/29 08:24:59;;;;;;;8.07;1.73;;;19.80;99.90;;;;;;5025199;28;20029;-68
2023/07/29 08:27:25;;;;;;;5.43;1.67;;;19.80;99.90;;;;;;5021571;28;20148;-69
2023/07/29 08:29:50;;;;;;;4.72;1.65;;;19.80;99.90;;;;;;5008998;28;20208;-70
2023/07/29 08:32:16;;;;;;;3.28;1.15;;;19.80;99.90;;;;;;5018885;28;20100;-69
2023/07/29 08:34:41;;;;;;;5.53;1.52;;;19.80;99.90;;;;;;5009569;28;20099;-69
2023/07/29 08:37:07;;;;;;;4.25;1.40;;;19.80;99.90;;;;;;5022341;28;20041;-69
2023/07/29 08:39:33;;;;;;;6.88;2.10;;;19.80;99.90;;;;;;5022633;28;20072;-68
2023/07/29 08:42:04;;;;;;;3.80;1.55;;;19.90;99.90;;;;;;5011596;28;20076;-68
2023/07/29 08:44:41;;;;;;;3.88;1.50;;;19.90;99.90;;;;;;5026732;28;20037;-68
2023/07/29 08:47:06;;;;;;;5.03;1.10;;;19.80;99.90;;;;;;5010069;28;20128;-68
2023/07/29 08:49:32;;;;;;;5.07;1.27;;;19.80;99.90;;;;;;5022947;28;20124;-69
2023/07/29 08:51:59;;;;;;;3.83;1.30;;;19.90;99.90;;;;;;5005292;28;20120;-68
2023/07/29 08:54:25;;;;;;;2.53;1.30;;;19.90;99.90;;;;;;5006997;28;20610;-68
2023/07/29 08:56:51;;;;;;;;;;;20.00;99.90;;;;;;5024727;28;20109;-68
2023/07/29 08:59:17;;;;;;;5.28;2.55;;;20.00;99.90;;;;;;5009107;28;19971;-68
2023/07/29 09:01:43;;;;;;;3.63;1.40;;;20.10;99.90;;;;;;4999211;28;20132;-69
2023/07/29 09:04:09;;;;;;;;;;;20.10;99.90;;;;;;5005003;28;20463;-68
2023/07/29 09:06:38;;;;;;;3.88;1.30;;;20.20;99.90;;;;;;5003798;28;19918;-68
2023/07/29 09:09:03;;;;;;;3.85;1.17;;;20.20;99.90;;;;;;5011439;28;20107;-68
2023/07/29 09:11:30;;;;;;;2.47;0.90;;;20.30;99.90;;;;;;5022463;28;20038;-68
2023/07/29 09:13:55;;;;;;;3.20;1.25;;;20.30;99.90;;;;;;5003880;28;20356;-68
2023/07/29 09:16:21;;;;;;;3.15;0.90;;;20.30;99.90;;;;;;5004756;28;20078;-68
2023/07/29 09:18:51;;;;;;;2.33;0.85;;;20.30;99.90;;;;;;5000587;28;20041;-71
2023/07/29 09:21:22;;;;;;;5.53;1.30;;;20.40;99.90;;;;;;5007416;28;20510;-71
2023/07/29 09:23:49;;;;;;;4.47;1.27;;;20.40;99.90;;;;;;4995387;28;20052;-71
2023/07/29 09:26:23;;;;;;;4.15;1.17;;;20.50;99.90;;;;;;5003914;28;20100;-72
2023/07/29 09:28:52;;;;;;;4.35;1.55;;;20.50;99.90;;;;;;4993074;28;20049;-71
2023/07/29 09:31:23;;;;;;;4.95;1.33;;;20.60;99.90;;;;;;5023455;28;20045;-71
2023/07/29 09:33:49;;;;;;;4.40;0.98;;;20.50;99.90;;;;;;5004443;28;20385;-71
2023/07/29 09:36:15;;;;;;;3.70;1.33;;;20.50;99.90;;;;;;5004256;28;20457;-71
2023/07/29 09:38:43;;;;;;;8.82;1.45;;;20.60;99.90;;;;;;5008335;28;20136;-72
2023/07/29 09:41:13;;;;;;;4.20;2.00;;;20.60;99.90;;;;;;5005219;28;20664;-72
2023/07/29 09:43:39;;;;;;;6.07;1.50;;;20.70;99.90;;;;;;5001631;28;20037;-71
2023/07/29 09:46:08;;;;;;;6.45;0.90;;;20.70;99.90;;;;;;5004216;28;20406;-71
2023/07/29 09:48:45;;;;;;;3.67;1.10;;;20.70;99.90;;;;;;5005284;28;20041;-70
2023/07/29 09:51:12;;;;;;;2.47;1.00;;;20.70;99.90;;;;;;5006638;28;20064;-70
2023/07/29 09:53:46;;;;;;;3.05;0.95;;;20.70;99.90;;;;;;5003157;28;20466;-70
2023/07/29 09:56:12;;;;;;;1.83;0.82;;;20.80;99.90;;;;;;4987707;28;20124;-71
2023/07/29 09:58:43;;;;;;;7.72;1.05;;;20.90;99.90;;;;;;5000365;28;20041;-70
2023/07/29 10:01:10;;;;;;;4.07;1.02;;;21.00;99.90;;;;;;5018625;28;20054;-70
2023/07/29 10:03:36;;;;;;;2.78;1.00;;;21.10;99.90;;;;;;4984801;28;20037;-71
2023/07/29 10:06:06;;;;;;;6.70;1.13;;;21.10;99.90;;;;;;5027342;28;20403;-71
2023/07/29 10:08:35;;;;;;;6.18;1.35;;;21.10;99.90;;;;;;5013011;28;20128;-71
2023/07/29 10:11:01;;;;;;;3.45;1.65;;;21.20;99.90;;;;;;5025363;28;20068;-71
2023/07/29 10:13:27;;;;;;;2.33;1.17;;;21.10;99.90;;;;;;5013696;28;20490;-71
2023/07/29 10:15:57;;;;;;;4.18;1.00;;;21.10;99.90;;;;;;5007176;28;20106;-72
2023/07/29 10:18:23;;;;;;;3.33;1.38;;;21.20;99.90;;;;;;5024926;28;20037;-72
2023/07/29 10:20:53;;;;;;;5.22;0.85;;;21.10;99.90;;;;;;5005353;28;20475;-73
2023/07/29 10:23:22;;;;;;;5.35;1.15;;;21.00;99.90;;;;;;5013330;28;20048;-71
2023/07/29 10:25:54;;;;;;;8.55;1.60;;;20.90;99.90;;;;;;5003810;28;20388;-71
2023/07/29 10:28:26;;;;;;;5.30;1.23;;;20.80;99.90;;;;;;4992667;28;20079;-72
2023/07/29 10:30:53;;;;;;;2.58;1.30;;;20.80;99.90;;;;;;5029794;28;20257;-72
2023/07/29 10:33:18;;;;;;;5.35;1.45;;;20.70;99.90;;;;;;5005937;28;20118;-71
2023/07/29 10:35:45;;;;;;;5.18;1.25;;;20.60;99.90;;;;;;5025050;28;20041;-71
2023/07/29 10:38:10;;;;;;;;;;;20.50;99.90;;;;;;4998641;28;20037;-71
2023/07/29 10:41:00;;;;;;;4.97;1.17;;;20.40;99.90;;;;;;4983577;28;19937;-71
2023/07/29 10:43:34;;;;;;;2.38;1.05;;;20.10;99.90;;;;;;5022302;28;20045;-71
2023/07/29 10:46:17;;;;;;;1.73;0.70;;;19.90;99.90;;;;;;5008129;28;20128;-70
2023/07/29 10:48:50;;;;;;;4.07;1.15;;;19.70;99.90;;;;;;5025861;28;20147;-70
2023/07/29 10:51:31;;;;;;;7.20;1.15;;;19.50;99.90;;;;;;5005542;28;20114;-71
2023/07/29 10:54:04;;;;;;;2.28;1.15;;;19.50;99.90;;;;;;5000021;28;20041;-71
2023/07/29 10:56:33;;;;;;;4.65;1.42;;;19.60;99.90;;;;;;5008770;28;20042;-71
2023/07/29 10:59:23;;;;;;;3.47;1.40;;;19.70;99.90;;;;;;5004868;28;20056;-70
2023/07/29 11:02:01;;;;;;;3.30;1.35;;;19.80;99.90;;;;;;5019519;28;20122;-71
2023/07/29 11:04:30;;;;;;;5.10;1.50;;;19.90;99.90;;;;;;5005894;28;20167;-70
2023/07/29 11:07:07;;;;;;;5.05;1.40;;;19.90;99.90;;;;;;5011724;28;20364;-71
2023/07/29 11:09:51;;;;;;;6.68;2.38;;;19.90;99.90;;;;;;5012402;28;20033;-71
2023/07/29 11:12:42;;;;;;;4.63;1.88;;;20.00;99.90;;;;;;4998106;28;20102;-70
2023/07/29 11:15:11;;;;;;;6.45;1.80;;;20.10;99.90;;;;;;5009099;28;20256;-70
2023/07/29 11:17:59;;;;;;;4.80;1.40;;;20.10;99.90;;;;;;5008040;28;20087;-70
2023/07/29 11:20:27;;;;;;;1.95;1.30;;;20.10;99.90;;;;;;4988986;28;20045;-70
2023/07/29 11:22:56;;;;;;;3.30;0.98;;;20.10;99.90;;;;;;5010431;28;20107;-71
2023/07/29 11:25:23;;;;;;;4.95;1.52;;;20.00;99.90;;;;;;5033110;28;20131;-70
2023/07/29 11:27:51;;;;;;;4.00;1.30;;;20.00;99.90;;;;;;5007726;28;20197;-70
2023/07/29 11:30:17;;;;;;;3.58;1.40;;;19.90;99.90;;;;;;5002725;28;20046;-70
2023/07/29 11:32:45;;;;;;;8.30;1.65;;;19.90;99.90;;;;;;5009391;28;20395;-70
2023/07/29 11:35:16;;;;;;;3.75;1.55;;;19.80;99.90;;;;;;5027082;28;20049;-70
2023/07/29 11:37:44;;;;;;;3.78;1.30;;;19.80;99.90;;;;;;5003108;28;20439;-70
2023/07/29 11:40:18;;;;;;;4.40;1.52;;;19.70;99.90;;;;;;5025076;28;20400;-70
2023/07/29 11:42:45;;;;;;;5.18;1.70;;;19.70;99.90;;;;;;5002326;28;20042;-71
2023/07/29 11:45:13;;;;;;;6.53;2.15;;;19.70;99.90;;;;;;5020320;28;20348;-70
2023/07/29 11:47:39;;;;;;;2.22;1.38;;;19.60;99.90;;;;;;5005112;28;20055;-70
2023/07/29 11:50:09;;;;;;;6.47;1.60;;;19.60;99.90;;;;;;5010397;28;20041;-70
2023/07/29 11:52:39;;;;;;;4.40;2.08;;;19.50;99.90;;;;;;5008834;28;20073;-70
2023/07/29 11:55:05;;;;;;;3.75;1.70;;;19.50;99.90;;;;;;5025372;28;20589;-70
2023/07/29 11:57:35;;;;;;;4.35;1.67;;;19.40;99.90;;;;;;5001723;28;20810;-70
2023/07/29 12:00:03;;;;;;;5.60;1.90;;;19.40;99.90;;;;;;5007947;28;20412;-70
2023/07/29 12:02:30;;;;;;;6.07;1.67;;;19.40;99.90;;;;;;5014780;28;20037;-71
2023/07/29 12:04:57;;;;;;;3.88;1.35;;;19.40;99.90;;;;;;5001641;28;20128;-71
2023/07/29 12:07:23;;;;;;;3.47;1.70;;;19.60;99.90;;;;;;5008116;28;20045;-71
2023/07/29 12:09:50;;;;;;;6.32;1.63;;;19.80;99.90;;;;;;5008858;28;20560;-71
2023/07/29 12:12:16;;;;;;;3.00;1.30;;;20.00;99.90;;;;;;5023345;28;20049;-71
2023/07/29 12:14:48;;;;;;;;;;;20.10;99.90;;;;;;5002541;28;20057;-71
2023/07/29 12:17:14;;;;;;;2.47;1.02;;;20.10;99.90;;;;;;5002514;28;20387;-71
2023/07/29 12:19:43;;;;;;;3.70;1.40;;;20.10;99.90;;;;;;5026071;28;20114;-71
2023/07/29 12:22:10;;;;;;;3.38;0.90;;;20.10;99.90;;;;;;4993862;28;20141;-69
2023/07/29 12:24:40;;;;;;;5.32;1.00;;;20.10;99.90;;;;;;5010553;28;20041;-69
2023/07/29 12:27:14;;;;;;;4.07;1.80;;;20.10;99.90;;;;;;5009759;28;20045;-68
2023/07/29 12:29:43;;;;;;;1.65;0.98;;;20.10;99.90;;;;;;5010022;28;20117;-69
2023/07/29 12:32:09;;;;;;;2.97;1.15;;;20.00;99.90;;;;;;5010127;28;20562;-69
2023/07/29 12:34:36;;;;;;;;;;;19.90;99.90;;;;;;5010528;28;20086;-68
2023/07/29 12:37:03;;;;;;;6.43;1.37;;;20.00;99.90;;;;;;5012993;28;19917;-69
2023/07/29 12:39:32;;;;;;;4.10;1.38;;;19.90;99.90;;;;;;5010220;28;20049;-68
2023/07/29 12:41:59;;;;;;;2.80;1.30;;;19.90;99.90;;;;;;5012985;28;20037;-68
2023/07/29 12:44:29;;;;;;;4.45;1.20;;;20.00;99.90;;;;;;5009090;28;20507;-69
2023/07/29 12:46:55;;;;;;;2.53;1.08;;;20.00;99.90;;;;;;4991244;28;20057;-68
2023/07/29 12:49:22;;;;;;;4.88;1.38;;;20.10;99.90;;;;;;5015269;28;20056;-69
2023/07/29 12:51:48;;;;;;;3.47;1.20;;;20.30;99.90;;;;;;4993992;28;20499;-68
2023/07/29 12:54:14;;;;;;;3.78;1.35;;;20.50;99.90;;;;;;5027473;28;20103;-69
2023/07/29 12:56:40;;;;;;;2.20;1.20;;;20.60;99.90;;;;;;5008511;28;20091;-68
2023/07/29 12:59:06;;;;;;;5.90;1.40;;;20.70;99.90;;;;;;5012004;28;20041;-69
2023/07/29 13:01:31;;;;;;;2.63;1.23;;;20.70;99.90;;;;;;5009204;28;20060;-68
2023/07/29 13:03:57;;;;;;;6.38;1.25;;;20.70;99.90;;;;;;5015654;28;20045;-68
2023/07/29 13:06:23;;;;;;;6.28;1.58;;;20.70;99.90;;;;;;5022951;28;20073;-69
2023/07/29 13:08:49;;;;;;;2.78;1.30;;;20.70;99.90;;;;;;5001829;28;20380;-68
2023/07/29 13:11:18;;;;;;;3.40;1.25;;;20.60;99.90;;;;;;5009523;28;20099;-68
2023/07/29 13:13:45;;;;;;;4.05;1.65;;;20.60;99.90;;;;;;5009250;28;20051;-69
2023/07/29 13:16:12;;;;;;;3.50;1.42;;;20.50;99.90;;;;;;5012185;28;20152;-69
2023/07/29 13:18:38;;;;;;;6.95;1.83;;;20.50;99.90;;;;;;5021469;28;20038;-68
2023/07/29 13:21:03;;;;;;;2.85;1.20;;;20.50;99.90;;;;;;5016075;28;20037;-69
2023/07/29 13:23:32;;;;;;;2.65;1.17;;;20.50;99.90;;;;;;5003856;28;20137;-68
2023/07/29 13:25:58;;;;;;;4.93;1.70;;;20.50;99.90;;;;;;4992209;28;20046;-69
2023/07/29 13:28:23;;;;;;;;;;;20.60;99.90;;;;;;5009900;28;20041;-68
2023/07/29 13:30:49;;;;;;;4.88;1.70;;;20.70;99.90;;;;;;4988807;28;19995;-68
2023/07/29 13:33:15;;;;;;;5.78;1.70;;;20.80;99.90;;;;;;5002452;28;20048;-69
2023/07/29 13:35:41;;;;;;;6.28;1.50;;;21.10;99.90;;;;;;5007813;28;20041;-69
2023/07/29 13:38:06;;;;;;;2.78;1.23;;;21.30;99.90;;;;;;5009629;28;20045;-68
2023/07/29 13:40:32;;;;;;;5.95;1.35;;;21.40;99.90;;;;;;5009972;28;20072;-69
2023/07/29 13:42:58;;;;;;;3.53;1.58;;;21.60;99.90;;;;;;5005984;28;20150;-69
2023/07/29 13:45:24;;;;;;;5.90;1.38;;;21.70;99.90;;;;;;5011142;28;20511;-68
2023/07/29 13:47:50;;;;;;;5.43;1.90;;;21.70;99.90;;;;;;5029512;28;20133;-69
2023/07/29 13:50:16;;;;;;;3.70;1.50;;;21.70;99.90;;;;;;5013961;28;20503;-69
2023/07/29 13:52:42;;;;;;;6.55;2.25;;;21.70;99.90;;;;;;5005757;28;20141;-69
2023/07/29 13:55:08;;;;;;;;;;;21.80;99.90;;;;;;5012230;28;20046;-71
2023/07/29 13:57:33;;;;;;;3.63;1.50;;;21.70;99.90;;;;;;5010581;28;19929;-72
2023/07/29 13:59:59;;;;;;;5.07;1.52;;;21.70;99.90;;;;;;5011064;28;20038;-73
2023/07/29 14:02:26;;;;;;;4.10;1.15;;;21.50;99.90;;;;;;5025697;28;20042;-72
2023/07/29 14:04:52;;;;;;;3.92;1.33;;;21.40;99.90;;;;;;5010918;28;20037;-73
2023/07/29 14:07:18;;;;;;;5.30;1.45;;;21.40;99.90;;;;;;5006476;28;20735;-72
2023/07/29 14:09:43;;;;;;;;;;;21.50;99.90;;;;;;4992090;28;20049;-73